Time;durP1;ratioP1;P1;durP2;ratioP2;P2;SDS_P1;SDS_P2;PMS_P1;PMS_P2;Temp;Humidity;BMP_temperature;BMP_pressure;BME280_temperature;BME280_humidity;BME280_pressure;Samples;Min_cycle;Max_cycle;Signal;HPM_P1;HPM_P2
2022/12/27 00:01:11;;;;;;;11.93;2.58;;;4.70;89.00;;;;;;9174529;19;20010;-68
2022/12/27 00:04:15;;;;;;;9.75;3.08;;;4.60;89.60;;;;;;9169018;19;20471;-68
2022/12/27 00:07:19;;;;;;;16.83;3.13;;;4.60;89.00;;;;;;9175103;19;20010;-68
2022/12/27 00:10:23;;;;;;;;;;;4.60;88.90;;;;;;9172895;19;20353;-68
2022/12/27 00:13:28;;;;;;;10.35;3.28;;;4.60;88.90;;;;;;9172842;19;19935;-68
2022/12/27 00:16:32;;;;;;;9.13;2.88;;;4.60;89.00;;;;;;9172172;19;20006;-68
2022/12/27 00:19:36;;;;;;;;;;;4.60;89.00;;;;;;9182231;19;20010;-68
2022/12/27 00:22:40;;;;;;;17.10;2.87;;;4.60;89.00;;;;;;9181079;19;19918;-66
2022/12/27 00:25:43;;;;;;;6.47;2.92;;;4.60;89.00;;;;;;9179558;19;20536;-70
2022/12/27 00:28:50;;;;;;;9.00;2.63;;;4.60;89.00;;;;;;9180373;19;20131;-67
2022/12/27 00:31:53;;;;;;;11.68;2.78;;;4.50;89.00;;;;;;9182928;19;20036;-69
2022/12/27 00:34:57;;;;;;;;;;;4.50;89.00;;;;;;9183911;19;20034;-69
2022/12/27 00:38:01;;;;;;;9.77;3.15;;;4.50;89.00;;;;;;9180193;19;19919;-68
2022/12/27 00:41:06;;;;;;;17.13;3.38;;;4.50;89.00;;;;;;9180769;19;20031;-68
2022/12/27 00:44:12;;;;;;;5.45;2.80;;;4.50;89.10;;;;;;9182593;19;20023;-68
2022/12/27 00:47:15;;;;;;;13.40;3.50;;;4.50;89.10;;;;;;9182524;19;20495;-68
2022/12/27 00:50:19;;;;;;;13.00;3.05;;;4.50;89.10;;;;;;9180841;19;20027;-68
2022/12/27 00:53:23;;;;;;;;;;;4.50;89.10;;;;;;9183927;19;20022;-67
2022/12/27 00:56:30;;;;;;;9.53;2.80;;;4.50;89.10;;;;;;9179216;19;19953;-68
2022/12/27 00:59:35;;;;;;;10.85;4.07;;;4.50;89.10;;;;;;9182084;19;20456;-68
2022/12/27 01:02:39;;;;;;;20.73;3.88;;;4.50;89.10;;;;;;9176696;19;20361;-68
2022/12/27 01:05:43;;;;;;;11.68;3.10;;;4.50;89.10;;;;;;9177195;19;20002;-68
2022/12/27 01:08:48;;;;;;;10.00;3.85;;;4.50;89.10;;;;;;9181402;19;20022;-69
2022/12/27 01:11:51;;;;;;;12.20;3.30;;;4.50;89.10;;;;;;9180811;19;20014;-68
2022/12/27 01:14:57;;;;;;;;;;;4.50;89.10;;;;;;9180136;19;20027;-68
2022/12/27 01:18:01;;;;;;;11.20;3.15;;;4.50;89.10;;;;;;9178191;19;19925;-68
2022/12/27 01:21:06;;;;;;;12.75;3.47;;;4.50;89.10;;;;;;9182093;19;20463;-68
2022/12/27 01:24:10;;;;;;;13.35;3.85;;;4.50;89.10;;;;;;9176568;19;20378;-68
2022/12/27 01:27:14;;;;;;;9.38;3.97;;;4.50;89.10;;;;;;9179226;19;20031;-68
2022/12/27 01:30:20;;;;;;;14.45;3.28;;;4.50;89.10;;;;;;9179099;19;20018;-67
2022/12/27 01:33:24;;;;;;;13.85;3.53;;;4.50;89.10;;;;;;9179419;19;20090;-68
2022/12/27 01:36:30;;;;;;;11.55;3.78;;;4.50;89.10;;;;;;9179426;19;20011;-68
2022/12/27 01:39:34;;;;;;;15.68;3.67;;;4.40;89.10;;;;;;9179272;19;20003;-67
2022/12/27 01:42:50;;;;;;;8.80;4.15;;;4.40;89.10;;;;;;9178832;19;20050;-67
2022/12/27 01:45:56;;;;;;;8.85;3.05;;;4.40;89.20;;;;;;9180734;19;20018;-68
2022/12/27 01:49:00;;;;;;;13.50;3.58;;;4.40;89.10;;;;;;9180429;19;20106;-68
2022/12/27 01:52:10;;;;;;;16.13;4.15;;;4.40;89.10;;;;;;9180031;19;20018;-68
2022/12/27 01:55:20;;;;;;;14.95;3.78;;;4.40;89.20;;;;;;9178893;19;20021;-67
2022/12/27 01:58:27;;;;;;;12.75;4.10;;;4.40;89.20;;;;;;9176030;19;20026;-68
2022/12/27 02:01:37;;;;;;;13.38;3.78;;;4.40;89.20;;;;;;9178476;19;20325;-68
2022/12/27 02:04:41;;;;;;;18.92;3.53;;;4.40;89.30;;;;;;9175332;19;20015;-67
2022/12/27 02:07:58;;;;;;;19.38;4.10;;;4.40;89.20;;;;;;9179346;19;20014;-67
2022/12/27 02:11:03;;;;;;;12.98;4.03;;;4.40;89.30;;;;;;9179186;19;20019;-67
2022/12/27 02:14:07;;;;;;;13.40;3.65;;;4.40;89.30;;;;;;9177943;19;20039;-67
2022/12/27 02:17:16;;;;;;;15.23;3.75;;;4.40;89.30;;;;;;9177267;19;20029;-68
2022/12/27 02:20:22;;;;;;;12.95;4.07;;;4.40;89.30;;;;;;9176607;19;20029;-68
2022/12/27 02:27:14;;;;;;;10.15;3.58;;;4.40;89.30;;;;;;9179600;19;20074;-68
2022/12/27 02:30:21;;;;;;;13.15;3.90;;;4.40;89.30;;;;;;9179798;19;20018;-69
2022/12/27 02:33:30;;;;;;;11.93;3.92;;;4.40;89.30;;;;;;9177256;19;20029;-69
2022/12/27 02:36:38;;;;;;;21.02;3.60;;;4.40;89.30;;;;;;9178237;19;20018;-69
2022/12/27 02:39:45;;;;;;;15.60;5.20;;;4.40;89.30;;;;;;9178372;19;20011;-68
2022/12/27 02:53:06;;;;;;;12.63;4.00;;;4.40;89.40;;;;;;9178877;19;20451;-68
2022/12/27 03:03:40;;;;;;;11.07;4.50;;;4.40;89.40;;;;;;9169966;19;20011;-66
2022/12/27 03:07:16;;;;;;;16.73;4.07;;;4.40;89.40;;;;;;9176940;19;20011;-68
2022/12/27 03:17:23;;;;;;;13.13;3.55;;;4.50;89.50;;;;;;9171911;19;20664;-68
2022/12/27 03:27:10;;;;;;;6.03;3.28;;;4.50;89.50;;;;;;9172865;19;20018;-68
2022/12/27 03:33:34;;;;;;;16.83;3.53;;;4.50;89.50;;;;;;9174831;19;20018;-68
2022/12/27 03:40:07;;;;;;;7.13;3.47;;;4.50;89.50;;;;;;9175887;19;20356;-67
2022/12/27 03:43:14;;;;;;;9.68;3.03;;;4.50;89.50;;;;;;9174702;19;20011;-67
2022/12/27 03:46:37;;;;;;;9.98;3.13;;;4.60;89.60;;;;;;9175660;19;20354;-68
2022/12/27 03:49:48;;;;;;;12.93;2.42;;;4.50;89.60;;;;;;9175855;19;20006;-67
2022/12/27 03:52:58;;;;;;;9.88;3.38;;;4.60;89.60;;;;;;9178476;19;20021;-69
2022/12/27 03:56:02;;;;;;;14.05;3.08;;;4.60;89.70;;;;;;9181729;19;20034;-67
2022/12/27 03:59:07;;;;;;;11.00;3.03;;;4.60;89.60;;;;;;9183875;19;20325;-70
2022/12/27 04:02:11;;;;;;;9.18;2.72;;;4.60;89.60;;;;;;9183196;19;20017;-66
2022/12/27 04:05:15;;;;;;;6.60;2.47;;;4.60;89.60;;;;;;9178841;19;20074;-70
2022/12/27 04:34:40;;;;;;;6.38;2.67;;;4.70;89.70;;;;;;9183137;19;20039;-68
2022/12/27 04:37:44;;;;;;;13.65;3.47;;;4.70;89.70;;;;;;9180505;19;20814;-68
2022/12/27 04:57:18;;;;;;;14.02;3.72;;;4.80;89.70;;;;;;9180895;19;20033;-67
2022/12/27 05:03:41;;;;;;;11.45;4.10;;;4.80;89.70;;;;;;9172850;19;20011;-67
2022/12/27 05:06:45;;;;;;;12.48;3.42;;;4.80;89.70;;;;;;9179275;19;20083;-69
2022/12/27 05:16:27;;;;;;;11.45;3.40;;;4.80;89.60;;;;;;9180768;19;20349;-68
2022/12/27 05:19:30;;;;;;;12.07;3.38;;;4.80;89.80;;;;;;9181356;19;20031;-68
2022/12/27 05:25:51;;;;;;;10.02;3.42;;;4.70;89.70;;;;;;9181330;19;20025;-69
2022/12/27 05:28:58;;;;;;;;;;;4.80;89.80;;;;;;9182661;19;20023;-67
2022/12/27 05:32:01;;;;;;;13.93;4.68;;;4.70;89.70;;;;;;9181536;19;19918;-67
2022/12/27 05:35:09;;;;;;;16.15;4.18;;;4.70;89.60;;;;;;9178815;19;20025;-69
2022/12/27 05:38:13;;;;;;;13.10;4.05;;;4.70;89.70;;;;;;9177257;19;20011;-68
2022/12/27 05:41:17;;;;;;;;;;;4.70;89.70;;;;;;9179527;19;20100;-68
2022/12/27 05:44:22;;;;;;;14.32;3.90;;;4.70;89.80;;;;;;9179270;19;19943;-70
2022/12/27 05:47:26;;;;;;;11.00;5.05;;;4.70;89.70;;;;;;9180128;19;20061;-67
2022/12/27 05:50:30;;;;;;;17.52;3.85;;;4.70;89.70;;;;;;9178610;19;20372;-68
2022/12/27 05:53:47;;;;;;;14.27;4.03;;;4.70;89.80;;;;;;9180036;19;20493;-69
2022/12/27 05:56:50;;;;;;;12.48;4.82;;;4.70;89.80;;;;;;9176654;19;20362;-69
2022/12/27 05:59:56;;;;;;;;;;;4.70;89.80;;;;;;9180046;19;20023;-67
2022/12/27 06:03:00;;;;;;;17.95;5.07;;;4.70;89.80;;;;;;9171747;19;19923;-69
2022/12/27 06:06:05;;;;;;;13.13;4.32;;;4.70;89.80;;;;;;9171811;19;20026;-71
2022/12/27 06:09:11;;;;;;;11.80;3.92;;;4.70;89.80;;;;;;9172925;19;20058;-69
2022/12/27 06:12:14;;;;;;;;;;;4.70;89.80;;;;;;9171664;19;20022;-70
2022/12/27 06:15:20;;;;;;;10.35;4.47;;;4.70;89.90;;;;;;9174513;19;19926;-69
2022/12/27 06:18:24;;;;;;;12.40;4.45;;;4.70;90.10;;;;;;9174670;19;20833;-67
2022/12/27 06:21:28;;;;;;;22.90;5.53;;;4.60;89.70;;;;;;9177196;19;20026;-69
2022/12/27 06:24:31;;;;;;;11.05;5.25;;;4.70;89.90;;;;;;9174923;19;20018;-67
2022/12/27 06:27:35;;;;;;;12.20;5.13;;;4.60;89.80;;;;;;9180328;19;20014;-69
2022/12/27 06:30:41;;;;;;;;;;;4.60;89.80;;;;;;9181187;19;20760;-68
2022/12/27 06:33:45;;;;;;;15.70;4.68;;;4.60;89.80;;;;;;9179412;19;19919;-69
2022/12/27 06:36:49;;;;;;;;;;;4.60;89.70;;;;;;9177665;19;20746;-68
2022/12/27 06:39:53;;;;;;;9.68;4.40;;;4.60;89.70;;;;;;9178172;19;19925;-68
2022/12/27 06:42:57;;;;;;;13.80;4.57;;;4.60;89.70;;;;;;9178505;19;20011;-68
2022/12/27 06:46:05;;;;;;;17.88;5.35;;;4.60;89.70;;;;;;9177965;19;20014;-69
2022/12/27 06:49:10;;;;;;;12.68;5.15;;;4.60;89.70;;;;;;9179010;19;20420;-67
2022/12/27 06:52:14;;;;;;;14.35;4.80;;;4.60;89.70;;;;;;9176448;19;20019;-67
2022/12/27 06:55:18;;;;;;;13.40;5.40;;;4.60;89.70;;;;;;9177553;19;20022;-68
2022/12/27 06:58:22;;;;;;;;;;;4.60;89.80;;;;;;9176517;19;20490;-69
2022/12/27 07:01:29;;;;;;;16.05;5.00;;;4.50;89.70;;;;;;9175074;19;19967;-69
2022/12/27 07:04:33;;;;;;;10.55;4.53;;;4.50;89.70;;;;;;9171859;19;20006;-68
2022/12/27 07:07:37;;;;;;;11.70;4.57;;;4.50;89.70;;;;;;9177958;19;20052;-67
2022/12/27 07:10:41;;;;;;;12.13;4.20;;;4.50;90.20;;;;;;9177147;19;20030;-67
2022/12/27 07:13:46;;;;;;;;;;;4.50;89.80;;;;;;9176593;19;20019;-66
2022/12/27 07:16:52;;;;;;;16.13;4.45;;;4.50;90.20;;;;;;9174347;19;19919;-69
2022/12/27 07:19:56;;;;;;;10.45;3.60;;;4.50;89.70;;;;;;9175986;19;20049;-69
2022/12/27 07:23:00;;;;;;;21.10;4.30;;;4.50;89.80;;;;;;9176699;19;20014;-68
2022/12/27 07:26:04;;;;;;;;;;;4.40;89.80;;;;;;9176129;19;20102;-69
2022/12/27 07:29:08;;;;;;;13.52;4.60;;;4.40;89.80;;;;;;9182881;19;20341;-69
2022/12/27 07:32:14;;;;;;;16.75;4.47;;;4.40;89.70;;;;;;9185047;19;20014;-68
2022/12/27 07:35:18;;;;;;;12.63;4.43;;;4.40;89.80;;;;;;9184102;19;20011;-67
2022/12/27 07:38:21;;;;;;;17.83;4.68;;;4.40;89.80;;;;;;9181495;19;20017;-69
2022/12/27 07:41:25;;;;;;;12.68;5.15;;;4.40;89.80;;;;;;9184808;19;20022;-68
2022/12/27 07:44:29;;;;;;;11.27;5.35;;;4.40;89.90;;;;;;9183063;19;20014;-68
2022/12/27 07:47:35;;;;;;;;;;;4.40;89.90;;;;;;9185972;19;20039;-68
2022/12/27 07:50:38;;;;;;;13.77;4.43;;;4.40;89.90;;;;;;9184178;19;19919;-67
2022/12/27 07:53:42;;;;;;;;;;;4.40;89.90;;;;;;9184438;19;20078;-67
2022/12/27 07:56:46;;;;;;;13.23;4.68;;;4.40;89.90;;;;;;9180890;19;19930;-68
2022/12/27 07:59:49;;;;;;;15.40;4.20;;;4.40;89.80;;;;;;9184362;19;20483;-69
2022/12/27 08:02:55;;;;;;;15.73;4.47;;;4.40;89.90;;;;;;9181721;19;20654;-69
2022/12/27 08:05:59;;;;;;;15.57;4.47;;;4.30;89.90;;;;;;9178357;19;20031;-69
2022/12/27 08:09:05;;;;;;;;;;;4.40;90.00;;;;;;9183259;19;20659;-69
2022/12/27 08:12:09;;;;;;;17.48;4.93;;;4.40;90.00;;;;;;9181967;19;19983;-69
2022/12/27 08:15:13;;;;;;;18.25;4.70;;;4.40;90.00;;;;;;9183886;19;20006;-69
2022/12/27 08:18:19;;;;;;;11.35;4.10;;;4.30;90.00;;;;;;9180273;19;20037;-67
2022/12/27 08:21:23;;;;;;;20.98;5.25;;;4.40;90.00;;;;;;9183304;19;20032;-68
2022/12/27 08:24:27;;;;;;;10.95;4.32;;;4.40;90.00;;;;;;9184337;19;20358;-69
2022/12/27 08:27:30;;;;;;;;;;;4.40;90.10;;;;;;9184812;19;20020;-67
2022/12/27 08:30:35;;;;;;;16.13;4.90;;;4.40;90.10;;;;;;9182868;19;19919;-68
2022/12/27 08:33:41;;;;;;;12.88;4.38;;;4.40;90.00;;;;;;9182516;19;20006;-68
2022/12/27 08:36:45;;;;;;;20.73;4.95;;;4.40;90.10;;;;;;9180965;19;20460;-68
2022/12/27 08:39:58;;;;;;;16.10;4.85;;;4.40;90.10;;;;;;9180683;19;20010;-68
2022/12/27 08:43:06;;;;;;;11.57;3.40;;;4.50;90.10;;;;;;9181083;19;20029;-67
2022/12/27 08:46:10;;;;;;;12.82;5.13;;;4.50;90.10;;;;;;9180822;19;20014;-68
2022/12/27 08:49:15;;;;;;;;;;;4.50;90.20;;;;;;9182847;19;20553;-67
2022/12/27 08:52:19;;;;;;;22.33;5.05;;;4.50;90.40;;;;;;9177103;19;19921;-67
2022/12/27 08:55:23;;;;;;;12.50;4.82;;;4.60;90.10;;;;;;9174681;19;20045;-67
2022/12/27 08:58:27;;;;;;;18.98;4.28;;;4.60;90.10;;;;;;9177545;19;20019;-67
2022/12/27 09:01:31;;;;;;;;;;;4.60;90.20;;;;;;9182492;19;20010;-68
2022/12/27 09:04:37;;;;;;;13.15;3.55;;;4.60;90.20;;;;;;9175311;19;19930;-68
2022/12/27 09:07:41;;;;;;;15.80;6.03;;;4.60;90.20;;;;;;9179137;19;20070;-67
2022/12/27 09:10:45;;;;;;;18.67;5.47;;;4.70;90.20;;;;;;9180907;19;20452;-68
2022/12/27 09:13:48;;;;;;;16.88;5.28;;;4.70;90.20;;;;;;9178709;19;20098;-68
2022/12/27 09:16:52;;;;;;;;;;;4.70;90.20;;;;;;9177167;19;20029;-70
2022/12/27 09:19:57;;;;;;;22.77;4.80;;;4.80;90.20;;;;;;9179455;19;19922;-67
2022/12/27 09:23:03;;;;;;;20.20;4.50;;;4.80;90.20;;;;;;9179106;19;20014;-69
2022/12/27 09:26:07;;;;;;;13.25;4.57;;;4.80;90.20;;;;;;9180358;19;20014;-69
2022/12/27 09:29:12;;;;;;;19.00;4.00;;;4.80;90.20;;;;;;9182174;19;20015;-70
2022/12/27 09:32:16;;;;;;;13.00;5.10;;;4.80;90.20;;;;;;9181189;19;20078;-70
2022/12/27 09:35:21;;;;;;;14.05;4.32;;;4.80;90.20;;;;;;9180122;19;20014;-69
2022/12/27 09:38:25;;;;;;;16.27;4.53;;;4.90;90.30;;;;;;9179356;19;20461;-69
2022/12/27 09:41:49;;;;;;;16.90;5.05;;;4.90;90.30;;;;;;9181761;19;20011;-73
2022/12/27 09:45:18;;;;;;;20.58;4.80;;;4.90;90.30;;;;;;9174044;19;20014;-72
2022/12/27 09:48:31;;;;;;;16.27;4.45;;;5.00;90.30;;;;;;9177019;19;20014;-72
2022/12/27 09:51:47;;;;;;;11.35;3.83;;;5.00;90.30;;;;;;9173079;19;20045;-73
2022/12/27 09:54:59;;;;;;;10.68;3.90;;;5.00;90.30;;;;;;9175355;19;20018;-72
2022/12/27 09:58:29;;;;;;;16.65;4.72;;;5.10;90.30;;;;;;9169191;19;20056;-72
2022/12/27 10:01:35;;;;;;;14.80;3.85;;;5.10;90.30;;;;;;9171348;19;20029;-71
2022/12/27 10:04:39;;;;;;;24.42;5.38;;;5.20;90.30;;;;;;9166584;19;20033;-72
2022/12/27 10:08:22;;;;;;;13.40;5.47;;;5.20;90.40;;;;;;9171482;19;20347;-74
2022/12/27 10:11:38;;;;;;;14.20;4.75;;;5.20;90.30;;;;;;9170511;19;20025;-72
2022/12/27 10:14:57;;;;;;;16.40;4.93;;;5.30;90.40;;;;;;9170791;19;20035;-69
2022/12/27 10:18:13;;;;;;;14.82;4.95;;;5.40;90.40;;;;;;9168698;19;20011;-68
2022/12/27 10:21:22;;;;;;;19.67;5.35;;;5.40;90.50;;;;;;9170522;19;20010;-72
2022/12/27 10:24:36;;;;;;;13.30;4.50;;;5.50;90.40;;;;;;9170489;19;20118;-68
2022/12/27 10:27:40;;;;;;;11.27;4.65;;;5.50;90.50;;;;;;9170834;19;20137;-68
2022/12/27 10:30:45;;;;;;;17.38;4.63;;;5.60;90.50;;;;;;9170582;19;20023;-68
2022/12/27 10:33:51;;;;;;;15.00;4.03;;;5.70;90.50;;;;;;9168789;19;20037;-68
2022/12/27 10:36:55;;;;;;;18.77;4.55;;;5.80;90.50;;;;;;9169193;19;20356;-68
2022/12/27 10:40:08;;;;;;;14.20;5.03;;;5.80;90.40;;;;;;9169651;19;20501;-67
2022/12/27 10:43:19;;;;;;;14.43;5.23;;;5.90;90.40;;;;;;9162297;19;20017;-69
2022/12/27 10:46:26;;;;;;;13.25;4.80;;;6.00;90.40;;;;;;9167585;19;20018;-67
2022/12/27 10:49:37;;;;;;;14.00;4.47;;;6.10;90.40;;;;;;9168813;19;20578;-66
2022/12/27 10:52:41;;;;;;;18.00;5.00;;;6.10;90.40;;;;;;9166887;19;20488;-69
2022/12/27 10:55:47;;;;;;;17.15;4.82;;;6.10;90.40;;;;;;9169212;19;20010;-69
2022/12/27 10:58:53;;;;;;;16.40;5.00;;;6.20;90.40;;;;;;9168215;19;20010;-69
2022/12/27 11:02:17;;;;;;;25.55;5.30;;;6.20;90.30;;;;;;9163607;19;20053;-69
2022/12/27 11:05:24;;;;;;;14.50;5.60;;;6.30;90.40;;;;;;9162773;19;20014;-69
2022/12/27 11:08:28;;;;;;;17.88;6.25;;;6.30;90.40;;;;;;9166581;19;20057;-68
2022/12/27 11:11:33;;;;;;;18.98;6.13;;;6.40;90.40;;;;;;9170318;19;20011;-68
2022/12/27 11:14:37;;;;;;;13.80;6.57;;;6.40;90.40;;;;;;9169075;19;20018;-68
2022/12/27 11:17:44;;;;;;;22.83;6.78;;;6.40;90.30;;;;;;9168331;19;20078;-67
2022/12/27 11:20:51;;;;;;;14.00;6.75;;;6.50;90.40;;;;;;9166790;19;20026;-68
2022/12/27 11:24:00;;;;;;;16.77;7.38;;;6.50;90.40;;;;;;9167693;19;20011;-68
2022/12/27 11:27:06;;;;;;;20.63;6.97;;;6.50;90.30;;;;;;9170142;19;20019;-68
2022/12/27 11:30:25;;;;;;;15.98;7.32;;;6.60;90.30;;;;;;9169520;19;20043;-68
2022/12/27 11:33:36;;;;;;;23.05;8.07;;;6.60;90.30;;;;;;9170409;19;20078;-68
2022/12/27 11:36:43;;;;;;;28.48;8.50;;;6.60;90.30;;;;;;9176304;19;20015;-68
2022/12/27 11:39:50;;;;;;;15.65;7.70;;;6.60;90.30;;;;;;9173163;19;20018;-68
2022/12/27 11:43:03;;;;;;;21.48;8.18;;;6.70;90.30;;;;;;9167143;19;20019;-67
2022/12/27 11:46:20;;;;;;;24.48;8.02;;;6.70;90.30;;;;;;9167947;19;20015;-68
2022/12/27 11:49:27;;;;;;;25.65;8.88;;;6.70;90.20;;;;;;9174343;19;20456;-68
2022/12/27 11:52:55;;;;;;;17.63;9.30;;;6.80;90.30;;;;;;9174441;19;20018;-68
2022/12/27 11:56:11;;;;;;;19.15;8.63;;;6.80;90.20;;;;;;9173264;19;20019;-69
2022/12/27 11:59:31;;;;;;;19.38;8.40;;;6.80;90.20;;;;;;9171207;19;20018;-68
2022/12/27 12:02:57;;;;;;;33.38;8.75;;;6.80;90.50;;;;;;9171610;19;20122;-68
2022/12/27 12:06:15;;;;;;;20.10;8.60;;;6.80;90.20;;;;;;9164663;19;20028;-68
2022/12/27 12:09:44;;;;;;;20.40;8.60;;;6.80;90.20;;;;;;9168591;19;20375;-68
2022/12/27 12:13:10;;;;;;;17.38;7.95;;;6.90;90.20;;;;;;9171032;19;20022;-68
2022/12/27 12:16:32;;;;;;;16.50;8.07;;;6.90;90.20;;;;;;9182342;19;20023;-68
2022/12/27 12:20:00;;;;;;;20.23;8.65;;;6.90;90.20;;;;;;9178386;19;20015;-68
2022/12/27 12:23:12;;;;;;;20.23;8.27;;;7.00;90.20;;;;;;9171801;19;20018;-67
2022/12/27 12:26:21;;;;;;;20.00;8.75;;;7.00;90.20;;;;;;9174221;19;20022;-67
2022/12/27 12:29:55;;;;;;;26.40;8.65;;;7.00;90.20;;;;;;9176188;19;20047;-68
2022/12/27 12:33:22;;;;;;;26.10;8.63;;;7.00;90.10;;;;;;9172234;19;20019;-68
2022/12/27 12:36:49;;;;;;;28.30;8.95;;;7.00;90.10;;;;;;9171254;19;20112;-68
2022/12/27 12:40:18;;;;;;;18.98;8.50;;;7.00;90.10;;;;;;9169290;19;20048;-68
2022/12/27 12:43:44;;;;;;;18.88;8.07;;;7.10;90.20;;;;;;9166999;19;20022;-68
2022/12/27 12:46:57;;;;;;;20.77;8.27;;;7.10;90.10;;;;;;9176256;19;20010;-68
2022/12/27 12:50:20;;;;;;;17.15;8.57;;;7.10;90.20;;;;;;9177240;19;20045;-68
2022/12/27 12:53:44;;;;;;;18.05;7.55;;;7.10;90.10;;;;;;9169569;19;20035;-68
2022/12/27 12:56:59;;;;;;;20.85;8.18;;;7.20;90.20;;;;;;9175552;19;20483;-68
2022/12/27 13:00:26;;;;;;;22.55;8.73;;;7.20;90.20;;;;;;9175855;19;20025;-68
2022/12/27 13:03:51;;;;;;;19.88;8.57;;;7.20;90.10;;;;;;9168119;19;20017;-69
2022/12/27 13:07:27;;;;;;;24.88;8.32;;;7.20;90.10;;;;;;9176162;19;20040;-68
2022/12/27 13:11:12;;;;;;;15.45;7.80;;;7.30;90.20;;;;;;9180567;19;20484;-67
2022/12/27 13:14:42;;;;;;;20.70;7.75;;;7.30;90.10;;;;;;9180034;19;20015;-62
2022/12/27 13:17:59;;;;;;;22.23;7.05;;;7.30;90.10;;;;;;9181691;19;20091;-65
2022/12/27 13:21:21;;;;;;;23.25;7.78;;;7.40;90.10;;;;;;9183896;19;20022;-64
2022/12/27 13:24:36;;;;;;;27.60;6.53;;;7.40;90.10;;;;;;9181390;19;20015;-62
2022/12/27 13:27:54;;;;;;;12.52;6.88;;;7.40;90.10;;;;;;9180898;19;20015;-64
2022/12/27 13:31:02;;;;;;;14.05;6.50;;;7.40;90.10;;;;;;9179064;19;20499;-62
2022/12/27 13:34:21;;;;;;;17.35;7.57;;;7.40;90.20;;;;;;9178423;19;20014;-68
2022/12/27 13:37:38;;;;;;;12.68;5.93;;;7.50;90.20;;;;;;9174763;19;20015;-70
2022/12/27 13:41:03;;;;;;;13.27;6.53;;;7.50;90.10;;;;;;9172795;19;20536;-69
2022/12/27 13:44:31;;;;;;;13.10;5.75;;;7.50;90.10;;;;;;9177981;19;20044;-69
2022/12/27 13:47:58;;;;;;;22.02;5.78;;;7.50;90.10;;;;;;9180876;19;20014;-69
2022/12/27 13:51:13;;;;;;;17.63;5.47;;;7.50;90.10;;;;;;9181385;19;20014;-69
2022/12/27 13:54:39;;;;;;;16.85;5.10;;;7.60;90.10;;;;;;9179594;19;20014;-70
2022/12/27 13:58:02;;;;;;;12.45;4.25;;;7.60;90.10;;;;;;9177793;19;20063;-68
2022/12/27 14:01:26;;;;;;;13.68;4.20;;;7.60;90.10;;;;;;9172056;19;20400;-68
2022/12/27 14:04:47;;;;;;;10.93;3.40;;;7.60;90.10;;;;;;9168663;19;20022;-68
2022/12/27 14:08:00;;;;;;;9.20;3.10;;;7.60;90.10;;;;;;9173018;19;20448;-69
2022/12/27 14:11:04;;;;;;;11.43;3.13;;;7.60;90.00;;;;;;9174636;19;20086;-69
2022/12/27 14:14:12;;;;;;;11.57;4.45;;;7.60;90.10;;;;;;9178956;19;20022;-69
2022/12/27 14:17:28;;;;;;;16.45;4.40;;;7.60;90.10;;;;;;9179718;19;20483;-70
2022/12/27 14:20:50;;;;;;;10.25;3.13;;;7.60;90.00;;;;;;9178343;19;20018;-69
2022/12/27 14:24:03;;;;;;;14.48;3.78;;;7.60;90.00;;;;;;9179749;19;20417;-68
2022/12/27 14:27:40;;;;;;;11.57;2.95;;;7.60;90.00;;;;;;9179282;19;20022;-69
2022/12/27 14:31:19;;;;;;;10.90;3.22;;;7.60;90.00;;;;;;9175922;19;20057;-68
2022/12/27 14:34:59;;;;;;;11.70;3.72;;;7.70;90.10;;;;;;9179380;19;20035;-70
2022/12/27 14:38:39;;;;;;;19.20;3.20;;;7.60;90.00;;;;;;9173352;19;20043;-69
2022/12/27 14:42:28;;;;;;;12.95;3.40;;;7.70;90.00;;;;;;9170728;19;20653;-69
2022/12/27 14:46:05;;;;;;;10.85;3.15;;;7.70;90.00;;;;;;9172817;19;20374;-68
2022/12/27 14:49:50;;;;;;;9.32;3.05;;;7.70;90.00;;;;;;9179078;19;20368;-68
2022/12/27 14:53:04;;;;;;;;;;;7.70;90.00;;;;;;9180395;19;20475;-68
2022/12/27 14:56:19;;;;;;;14.25;3.53;;;7.70;90.00;;;;;;9177124;19;19933;-69
2022/12/27 14:59:36;;;;;;;10.15;3.40;;;7.70;90.00;;;;;;9172341;19;20029;-69
2022/12/27 15:03:07;;;;;;;12.48;3.53;;;7.70;90.00;;;;;;9173870;19;20019;-68
2022/12/27 15:06:20;;;;;;;15.23;3.47;;;7.70;90.00;;;;;;9172303;19;20037;-69
2022/12/27 15:09:32;;;;;;;11.87;3.87;;;7.60;89.90;;;;;;9175791;19;20042;-69
2022/12/27 15:12:44;;;;;;;;;;;7.60;90.00;;;;;;9169955;19;20473;-68
2022/12/27 15:15:56;;;;;;;10.25;3.50;;;7.60;90.00;;;;;;9170558;19;20347;-69
2022/12/27 15:19:16;;;;;;;15.57;3.10;;;7.60;90.00;;;;;;9171273;19;20045;-69
2022/12/27 15:22:32;;;;;;;9.93;3.58;;;7.60;89.90;;;;;;9173852;19;20010;-69
2022/12/27 15:25:50;;;;;;;8.05;3.00;;;7.50;89.90;;;;;;9172492;19;20022;-70
2022/12/27 15:29:11;;;;;;;10.30;3.33;;;7.50;90.00;;;;;;9158563;19;20031;-67
2022/12/27 15:32:27;;;;;;;5.35;3.15;;;7.50;89.90;;;;;;9169277;19;20273;-70
2022/12/27 15:35:50;;;;;;;9.65;3.28;;;7.50;90.20;;;;;;9169076;19;20018;-70
2022/12/27 15:38:56;;;;;;;15.73;3.47;;;7.50;89.90;;;;;;9164822;19;20022;-69
2022/12/27 15:42:08;;;;;;;12.32;3.22;;;7.50;89.90;;;;;;9167129;19;20625;-69
2022/12/27 15:45:26;;;;;;;7.60;3.33;;;7.40;89.90;;;;;;9166846;19;20018;-69
2022/12/27 15:48:57;;;;;;;8.85;4.38;;;7.40;89.90;;;;;;9170841;19;20032;-69
2022/12/27 15:52:08;;;;;;;12.82;3.45;;;7.40;90.00;;;;;;9176605;19;20049;-69
2022/12/27 15:55:23;;;;;;;7.47;2.88;;;7.40;90.00;;;;;;9175440;19;20014;-69
2022/12/27 15:58:27;;;;;;;10.75;3.22;;;7.40;90.00;;;;;;9175407;19;20023;-69
2022/12/27 16:01:33;;;;;;;7.78;2.78;;;7.30;90.00;;;;;;9174238;19;20029;-69
2022/12/27 16:04:50;;;;;;;7.80;3.05;;;7.30;89.90;;;;;;9171198;19;20021;-69
2022/12/27 16:08:35;;;;;;;8.48;3.15;;;7.30;90.00;;;;;;9175820;19;20467;-70
2022/12/27 16:12:08;;;;;;;8.77;3.20;;;7.30;90.10;;;;;;9174942;19;20018;-69
2022/12/27 16:15:50;;;;;;;9.80;3.30;;;7.20;89.90;;;;;;9174429;19;20098;-69
2022/12/27 16:19:23;;;;;;;9.27;3.10;;;7.30;90.00;;;;;;9173044;19;20018;-69
2022/12/27 16:22:33;;;;;;;12.80;3.83;;;7.20;90.00;;;;;;9171149;19;20018;-70
2022/12/27 16:25:39;;;;;;;12.48;3.35;;;7.20;90.00;;;;;;9176000;19;20348;-69
2022/12/27 16:28:53;;;;;;;11.40;3.30;;;7.20;90.00;;;;;;9174518;19;20022;-69
2022/12/27 16:32:20;;;;;;;8.43;3.05;;;7.20;90.00;;;;;;9174433;19;20022;-70
2022/12/27 16:35:24;;;;;;;12.27;3.40;;;7.20;90.00;;;;;;9175516;19;20026;-69
2022/12/27 16:38:30;;;;;;;13.55;3.47;;;7.20;90.00;;;;;;9172136;19;20022;-68
2022/12/27 16:41:59;;;;;;;7.90;3.22;;;7.20;90.00;;;;;;9172152;19;20018;-68
2022/12/27 16:45:29;;;;;;;9.73;2.90;;;7.20;90.00;;;;;;9174360;19;20472;-68
2022/12/27 16:48:47;;;;;;;9.60;3.13;;;7.20;90.00;;;;;;9176973;19;20484;-68
2022/12/27 16:52:04;;;;;;;10.52;3.58;;;7.20;90.00;;;;;;9175857;19;20054;-70
2022/12/27 16:55:35;;;;;;;7.90;3.00;;;7.20;90.00;;;;;;9175840;19;20019;-69
2022/12/27 16:58:40;;;;;;;9.52;3.20;;;7.20;90.00;;;;;;9173713;19;20018;-70
2022/12/27 17:02:01;;;;;;;13.25;3.20;;;7.20;90.00;;;;;;9164984;19;20503;-70
2022/12/27 17:05:33;;;;;;;14.80;2.70;;;7.20;90.00;;;;;;9159886;19;20093;-70
2022/12/27 17:08:37;;;;;;;9.20;3.15;;;7.20;90.00;;;;;;9166074;19;20019;-67
2022/12/27 17:12:01;;;;;;;10.25;3.30;;;7.20;90.00;;;;;;9169684;19;20018;-70
2022/12/27 17:15:06;;;;;;;;;;;7.20;90.00;;;;;;9174462;19;20019;-68
2022/12/27 17:18:25;;;;;;;6.43;2.70;;;7.20;90.00;;;;;;9172371;19;20755;-69
2022/12/27 17:21:31;;;;;;;8.40;3.90;;;7.30;90.00;;;;;;9158476;19;20033;-68
2022/12/27 17:24:35;;;;;;;8.15;3.50;;;7.30;90.10;;;;;;9164439;19;20022;-69
2022/12/27 17:27:53;;;;;;;12.85;3.80;;;7.30;90.10;;;;;;9163836;19;20356;-68
2022/12/27 17:31:05;;;;;;;12.25;2.80;;;7.30;90.10;;;;;;9166300;19;20373;-69
2022/12/27 17:34:19;;;;;;;12.52;3.40;;;7.30;90.10;;;;;;9163864;19;20044;-69
2022/12/27 17:37:30;;;;;;;11.82;3.15;;;7.30;90.10;;;;;;9159129;19;20015;-70
2022/12/27 17:40:40;;;;;;;10.30;3.42;;;7.30;90.10;;;;;;9162804;19;20029;-70
2022/12/27 17:47:30;;;;;;;10.90;2.90;;;7.30;90.10;;;;;;9172795;19;20014;-68
2022/12/27 17:50:40;;;;;;;12.30;3.58;;;7.30;90.10;;;;;;9165044;19;20018;-69
2022/12/27 18:00:53;;;;;;;11.85;3.60;;;7.40;90.10;;;;;;9165520;19;20506;-70
2022/12/27 18:03:57;;;;;;;10.45;3.60;;;7.40;90.10;;;;;;9165681;19;20474;-69
2022/12/27 18:07:06;;;;;;;10.45;3.08;;;7.40;90.10;;;;;;9170442;19;20010;-69
2022/12/27 18:10:19;;;;;;;13.55;3.05;;;7.40;90.10;;;;;;9169936;19;20026;-68
2022/12/27 18:13:26;;;;;;;10.15;3.60;;;7.40;90.00;;;;;;9164629;19;20018;-68
2022/12/27 18:16:38;;;;;;;14.45;3.38;;;7.40;90.30;;;;;;9161899;19;20038;-69
2022/12/27 18:19:42;;;;;;;8.52;3.30;;;7.40;90.00;;;;;;9163653;19;20018;-68
2022/12/27 18:22:47;;;;;;;13.45;3.63;;;7.40;90.00;;;;;;9167893;19;20014;-68
2022/12/27 18:25:57;;;;;;;9.15;3.33;;;7.40;90.00;;;;;;9167834;19;20697;-68
2022/12/27 18:29:04;;;;;;;9.38;2.55;;;7.40;90.00;;;;;;9170078;19;20467;-70
2022/12/27 18:32:10;;;;;;;12.35;4.65;;;7.40;90.00;;;;;;9175086;19;20018;-70
2022/12/27 18:35:18;;;;;;;11.18;2.95;;;7.40;90.00;;;;;;9173788;19;20050;-70